עמוד ראשי
METAR-TAF:

METAR-TAF

שדות תעופה :

ראס אל-ח'ימה, איחוד האמירויות הערביות

קו רוחב: 25-37N, קו אורך: 055-56E, גובה: 31מטר

תצפית מזג אוויר נוכחית

הדו"ח נערך לפני 23דקות, בשעה 02:00 UTC
רוח 3קשר מכיוון דרום/דרום-מזרח
טמפרטורת 34 צלסיוס
לחות 75%
לחץ 996 hPa
ראות: 6000מטר

METAR: OMRK 220200Z 16003KT 6000 NSC 34/29 Q0995 A2941

זמן: 06:23 (02:23 UTC)

תחזית

הדו"ח נערך לפני 3 שעות ו 23דקות, בשעה 23:00 UTC
תחזית בתוקף מ 22 ב 00 UTC עד 23 ב 06 UTC
רוח 2קשר עם כיוונים משתנים
ראות: 8000מטר
הסתברות 30%
22 ב 00 UTC עד 22 ב 05 UTC
ראות: 3000מטר
אובך
יעשה מ
22 ב 08 UTC עד 22 ב 10 UTC
רוח 12קשר מכיוון צפון
יעשה מ
22 ב 15 UTC עד 22 ב 17 UTC
רוח 2קשר עם כיוונים משתנים

TAF: OMRK 212300Z 2200/2306 VRB02KT 8000 NSC PROB30 2200/2205 3000 HZ BECMG 2208/2210 35012KT BECMG 2215/2217 VRB02KT

תצפיות ותחזיות מזג אוויר לגבי יותר מ- 4,000 שדות תעופה ברחבי העולם. דוחות METAR ו- TAF.

התחנות הזמינות מסומנות בנקודות צהובות ואדומות על גבי המפה.

העבר את העכבר לנקודה הצבעונית על מנת לראות את שם התחנה.

לאחר מכן, לחץ כדי לראות את תוכן ואת תחזיות מזג האוויר.

כדי לשנות את המפה: לחץ על הכפתורים הירוקים עם הפלוס השחור כדי להתקרב; על הכפתור הירוק עם המקף כדי להתרחק; או בחיצים הירוקים למפות סמוכות.


METAR-TAF: